Schedule Details

Flight Number: CPX81
Departure: Kingsford Smith International Airport (YSSY) at N/A
Arrival: Daniel K Inouye International Airport (PHNL) at N/A


Current Weather Information
YSSY 152030Z 31004KT 9999 FEW030 SCT300 21/14 Q1021 NOSIG
PHNL 152053Z 03008G19KT 10SM FEW025 SCT040 BKN055 24/15 A3001 RMK AO2 RAB38E45 SLP161 P0000 60000 T02390150 50005

Route Map